createdAt,value
2018-09-29T00:00:29.161Z,2.00
2018-09-29T00:02:59.251Z,2.80
2018-09-29T00:05:29.396Z,3.17
2018-09-29T00:07:59.462Z,3.07
2018-09-29T00:10:29.569Z,3.07
2018-09-29T00:12:59.642Z,2.97
2018-09-29T00:15:29.723Z,2.93
2018-09-29T00:17:59.842Z,3.00
2018-09-29T00:20:30.070Z,3.10
2018-09-29T00:23:00.182Z,3.03
2018-09-29T00:25:30.288Z,2.80
2018-09-29T00:28:00.354Z,4.30
2018-09-29T00:30:30.509Z,3.53
2018-09-29T00:33:00.596Z,3.30
2018-09-29T00:35:30.709Z,3.00
2018-09-29T00:38:00.817Z,3.00
2018-09-29T00:40:30.932Z,2.83
2018-09-29T00:43:01.017Z,3.00
2018-09-29T00:45:31.433Z,3.40
2018-09-29T00:48:01.539Z,2.57
2018-09-29T00:50:31.628Z,3.30
2018-09-29T00:53:01.754Z,3.67
2018-09-29T00:55:31.896Z,3.30
2018-09-29T00:58:01.961Z,3.60
2018-09-29T01:00:32.071Z,4.57
2018-09-29T01:03:02.217Z,3.60
2018-09-29T01:05:32.356Z,3.40
2018-09-29T01:08:02.521Z,3.50
2018-09-29T01:10:32.667Z,3.93
2018-09-29T01:13:02.736Z,3.40
2018-09-29T01:15:32.896Z,2.90
2018-09-29T01:18:02.988Z,2.87
2018-09-29T01:20:33.165Z,3.87
2018-09-29T01:23:03.342Z,3.53
2018-09-29T01:25:33.549Z,3.20
2018-09-29T01:28:03.618Z,3.53
2018-09-29T01:30:33.753Z,3.77
2018-09-29T01:33:03.917Z,4.93
2018-09-29T01:35:33.999Z,3.40
2018-09-29T01:38:04.075Z,2.93
2018-09-29T01:40:34.195Z,3.57
2018-09-29T01:43:04.295Z,3.73
2018-09-29T01:45:34.377Z,2.83
2018-09-29T01:48:04.489Z,3.77
2018-09-29T01:50:34.605Z,3.57
2018-09-29T01:53:04.935Z,3.70
2018-09-29T01:55:35.047Z,4.70
2018-09-29T01:58:05.322Z,3.73
2018-09-29T02:00:35.607Z,3.63
2018-09-29T02:03:09.960Z,3.43
2018-09-29T02:05:41.581Z,2.90
2018-09-29T02:08:11.763Z,3.63
2018-09-29T02:10:41.946Z,3.67
2018-09-29T02:13:12.055Z,3.13
2018-09-29T02:15:42.190Z,3.93
2018-09-29T02:18:12.307Z,3.23
2018-09-29T02:20:42.437Z,3.13
2018-09-29T02:23:12.499Z,4.47
2018-09-29T02:25:42.604Z,3.60
2018-09-29T02:28:12.777Z,3.10
2018-09-29T02:30:42.947Z,3.60
2018-09-29T02:33:12.974Z,3.53
2018-09-29T02:35:43.094Z,4.03
2018-09-29T02:38:13.169Z,3.97
2018-09-29T02:40:43.328Z,3.90
2018-09-29T02:43:13.423Z,3.93
2018-09-29T02:45:43.558Z,3.83
2018-09-29T02:48:13.700Z,3.80
2018-09-29T02:50:43.823Z,3.87
2018-09-29T02:53:13.925Z,3.97
2018-09-29T02:55:44.111Z,3.83
2018-09-29T02:58:14.230Z,3.40
2018-09-29T03:00:44.384Z,4.37
2018-09-29T03:03:14.504Z,4.20
2018-09-29T03:05:44.659Z,3.63
2018-09-29T03:08:14.784Z,4.40
2018-09-29T03:10:44.958Z,4.30
2018-09-29T03:13:15.093Z,4.57
2018-09-29T03:15:45.205Z,3.87
2018-09-29T03:18:15.324Z,3.87
2018-09-29T03:20:45.469Z,4.17
2018-09-29T03:23:15.634Z,4.47
2018-09-29T03:25:45.718Z,4.00
2018-09-29T03:28:15.868Z,3.77
2018-09-29T03:30:46.006Z,4.43
2018-09-29T03:33:16.060Z,4.27
2018-09-29T03:35:46.174Z,4.30
2018-09-29T03:38:16.275Z,3.73
2018-09-29T03:40:46.421Z,5.80
2018-09-29T03:43:16.610Z,3.80
2018-09-29T03:45:46.755Z,4.60
2018-09-29T03:48:16.867Z,4.60
2018-09-29T03:50:47.086Z,4.63
2018-09-29T03:53:17.192Z,4.20
2018-09-29T03:55:47.320Z,3.70
2018-09-29T03:58:17.401Z,4.50
2018-09-29T04:00:47.570Z,4.00
2018-09-29T04:03:17.716Z,5.53
2018-09-29T04:05:47.830Z,4.20
2018-09-29T04:08:17.948Z,4.33
2018-09-29T04:10:48.102Z,4.70
2018-09-29T04:13:18.215Z,4.67
2018-09-29T04:15:48.367Z,4.80
2018-09-29T04:18:18.534Z,5.53
2018-09-29T04:20:48.671Z,4.60
2018-09-29T04:23:19.156Z,4.00
2018-09-29T04:25:49.376Z,4.60
2018-09-29T04:28:19.516Z,4.80
2018-09-29T04:30:49.637Z,4.53
2018-09-29T04:33:19.781Z,4.30
2018-09-29T04:35:50.057Z,4.00
2018-09-29T04:38:20.205Z,5.47
2018-09-29T04:40:50.370Z,4.57
2018-09-29T04:43:20.609Z,5.40
2018-09-29T04:45:50.733Z,4.90
2018-09-29T04:48:20.865Z,4.60
2018-09-29T04:50:50.906Z,5.10
2018-09-29T04:53:21.006Z,5.07
2018-09-29T04:55:51.091Z,5.53
2018-09-29T04:58:21.335Z,5.43
2018-09-29T05:00:51.475Z,5.80
2018-09-29T05:03:21.619Z,5.30
2018-09-29T05:05:51.815Z,5.67
2018-09-29T05:08:21.960Z,5.07
2018-09-29T05:10:52.034Z,3.70
2018-09-29T05:13:22.209Z,5.70
2018-09-29T05:15:52.291Z,5.40
2018-09-29T05:18:22.498Z,5.60
2018-09-29T05:20:52.594Z,6.30
2018-09-29T05:23:22.861Z,5.40
2018-09-29T05:25:52.901Z,6.10
2018-09-29T05:28:23.051Z,4.67
2018-09-29T05:30:53.182Z,5.97
2018-09-29T05:33:23.299Z,6.90
2018-09-29T05:35:53.542Z,5.40
2018-09-29T05:38:23.718Z,5.13
2018-09-29T05:40:53.802Z,5.53
2018-09-29T05:43:23.991Z,7.47
2018-09-29T05:45:54.069Z,7.40
2018-09-29T05:48:24.198Z,7.03
2018-09-29T05:50:54.267Z,8.87
2018-09-29T05:53:24.434Z,6.90
2018-09-29T05:55:54.537Z,7.10
2018-09-29T05:58:25.336Z,7.57
2018-09-29T06:00:55.464Z,7.23
2018-09-29T06:03:25.599Z,6.60
2018-09-29T06:05:55.851Z,6.60
2018-09-29T06:08:25.895Z,8.37
2018-09-29T06:10:56.106Z,7.87
2018-09-29T06:13:26.188Z,8.73
2018-09-29T06:15:56.485Z,8.73
2018-09-29T06:18:26.716Z,8.30
2018-09-29T06:20:56.965Z,14.70
2018-09-29T06:23:27.233Z,16.70
2018-09-29T06:25:57.329Z,14.73
2018-09-29T06:28:27.439Z,12.67
2018-09-29T06:30:57.583Z,13.70
2018-09-29T06:33:27.714Z,13.73
2018-09-29T06:35:59.031Z,12.07
2018-09-29T06:38:29.227Z,11.63
2018-09-29T06:40:59.322Z,13.40
2018-09-29T06:43:29.493Z,11.20
2018-09-29T06:45:59.695Z,10.13
2018-09-29T06:48:29.930Z,12.50
2018-09-29T06:51:00.012Z,12.87
2018-09-29T06:53:30.295Z,10.87
2018-09-29T06:56:00.455Z,12.37
2018-09-29T06:58:30.688Z,18.10
2018-09-29T07:01:00.884Z,14.50
2018-09-29T07:03:31.129Z,11.80
2018-09-29T07:06:01.190Z,9.10
2018-09-29T07:08:31.299Z,6.70
2018-09-29T07:11:01.514Z,6.53
2018-09-29T07:13:31.588Z,5.40
2018-09-29T07:16:01.880Z,5.63
2018-09-29T07:18:32.226Z,4.87
2018-09-29T07:21:02.391Z,5.67
2018-09-29T07:23:32.734Z,5.37
2018-09-29T07:26:02.841Z,6.40
2018-09-29T07:28:33.065Z,7.07
2018-09-29T07:31:03.234Z,7.10
2018-09-29T07:33:33.378Z,6.43
2018-09-29T07:36:03.579Z,6.77
2018-09-29T07:38:33.858Z,6.10
2018-09-29T07:41:04.138Z,6.93
2018-09-29T07:43:34.460Z,6.93
2018-09-29T07:46:04.588Z,7.10
2018-09-29T07:48:34.772Z,6.60
2018-09-29T07:51:04.909Z,5.90
2018-09-29T07:53:35.217Z,5.90
2018-09-29T07:56:06.024Z,6.97
2018-09-29T07:58:36.121Z,7.17
2018-09-29T08:01:06.344Z,6.10
2018-09-29T08:03:36.491Z,6.40
2018-09-29T08:06:06.599Z,6.73
2018-09-29T08:08:36.686Z,7.47
2018-09-29T08:11:06.751Z,6.00
2018-09-29T08:13:36.920Z,5.60
2018-09-29T08:16:07.229Z,5.40
2018-09-29T08:18:37.454Z,4.80
2018-09-29T08:21:07.566Z,4.87
2018-09-29T08:23:37.924Z,5.40
2018-09-29T08:26:08.082Z,4.70
2018-09-29T08:28:38.215Z,4.87
2018-09-29T08:31:08.567Z,4.67
2018-09-29T08:33:38.706Z,4.43
2018-09-29T08:36:08.827Z,5.13
2018-09-29T08:38:38.956Z,4.00
2018-09-29T08:41:09.063Z,5.03
2018-09-29T08:43:39.222Z,4.13
2018-09-29T08:46:25.975Z,4.67
2018-09-29T08:49:06.354Z,4.00
2018-09-29T08:51:38.088Z,3.73
2018-09-29T08:54:08.512Z,3.77
2018-09-29T08:56:38.662Z,6.37
2018-09-29T08:59:08.909Z,3.53
2018-09-29T09:01:39.064Z,3.10
2018-09-29T09:04:09.399Z,3.33
2018-09-29T09:06:39.528Z,2.20
2018-09-29T09:09:11.105Z,2.67
2018-09-29T09:11:41.477Z,4.40
2018-09-29T09:14:11.758Z,3.80
2018-09-29T09:16:41.954Z,2.17
2018-09-29T09:19:12.088Z,2.93
2018-09-29T09:21:42.170Z,2.77
2018-09-29T09:24:12.410Z,3.17
2018-09-29T09:26:42.482Z,3.00
2018-09-29T09:29:12.597Z,2.83
2018-09-29T09:31:42.663Z,3.13
2018-09-29T09:34:12.812Z,2.50
2018-09-29T09:36:42.898Z,2.60
2018-09-29T09:39:13.655Z,3.60
2018-09-29T09:41:43.778Z,3.03
2018-09-29T09:44:13.910Z,2.10
2018-09-29T09:46:44.060Z,1.77
2018-09-29T09:49:14.173Z,1.80
2018-09-29T09:51:44.240Z,1.97
2018-09-29T09:54:14.353Z,1.80
2018-09-29T09:56:44.494Z,2.10
2018-09-29T09:59:14.704Z,2.60
2018-09-29T10:02:52.642Z,2.70
2018-09-29T10:05:22.820Z,2.30
2018-09-29T10:07:52.943Z,3.03
2018-09-29T10:10:23.151Z,2.00
2018-09-29T10:12:53.266Z,2.60
2018-09-29T10:15:23.429Z,1.77
2018-09-29T10:17:53.515Z,3.43
2018-09-29T10:20:23.673Z,4.60
2018-09-29T10:22:53.751Z,5.40
2018-09-29T10:25:23.842Z,2.13
2018-09-29T10:27:53.971Z,2.30
2018-09-29T10:30:24.181Z,1.70
2018-09-29T10:32:54.245Z,2.80
2018-09-29T10:35:24.378Z,1.87
2018-09-29T10:37:54.491Z,2.27
2018-09-29T10:40:24.659Z,2.23
2018-09-29T10:42:54.793Z,2.40
2018-09-29T10:45:25.373Z,2.10
2018-09-29T10:47:55.440Z,1.37
2018-09-29T10:50:25.596Z,1.30
2018-09-29T10:52:55.722Z,1.50
2018-09-29T10:55:26.152Z,2.40
2018-09-29T10:57:56.236Z,2.17
2018-09-29T11:00:26.399Z,1.73
2018-09-29T11:02:56.595Z,1.23
2018-09-29T11:05:26.769Z,1.80
2018-09-29T11:07:56.832Z,1.70
2018-09-29T11:10:26.956Z,1.20
2018-09-29T11:12:57.542Z,1.40
2018-09-29T11:15:27.649Z,2.30
2018-09-29T11:17:57.728Z,2.53
2018-09-29T11:20:27.828Z,2.30
2018-09-29T11:22:57.973Z,2.20
2018-09-29T11:25:28.516Z,1.43
2018-09-29T11:27:59.172Z,1.20
2018-09-29T11:30:29.326Z,1.80
2018-09-29T11:32:59.465Z,1.73
2018-09-29T11:35:29.598Z,1.83
2018-09-29T11:37:59.811Z,1.20
2018-09-29T11:40:29.967Z,1.43
2018-09-29T11:43:00.039Z,1.27
2018-09-29T11:45:30.213Z,1.30
2018-09-29T11:48:00.389Z,1.67
2018-09-29T11:50:30.569Z,1.60
2018-09-29T11:53:00.646Z,3.70
2018-09-29T11:55:31.036Z,1.43
2018-09-29T11:58:01.118Z,1.87
2018-09-29T12:00:31.264Z,2.37
2018-09-29T12:03:01.405Z,1.57
2018-09-29T12:05:31.552Z,1.80
2018-09-29T12:08:01.825Z,1.50
2018-09-29T12:10:31.939Z,1.30
2018-09-29T12:13:02.044Z,1.40
2018-09-29T12:15:32.219Z,1.10
2018-09-29T12:18:02.366Z,1.00
2018-09-29T12:20:32.515Z,1.10
2018-09-29T12:23:02.654Z,1.93
2018-09-29T12:25:32.799Z,1.80
2018-09-29T12:28:02.936Z,1.33
2018-09-29T12:30:33.082Z,1.80
2018-09-29T12:33:03.186Z,1.67
2018-09-29T12:35:33.315Z,1.10
2018-09-29T12:38:03.388Z,1.53
2018-09-29T12:40:33.557Z,1.60
2018-09-29T12:43:03.659Z,1.17
2018-09-29T12:45:33.947Z,1.00
2018-09-29T12:48:04.126Z,0.97
2018-09-29T12:50:34.328Z,0.90
2018-09-29T12:53:04.398Z,1.00
2018-09-29T12:55:34.512Z,1.40
2018-09-29T12:58:04.602Z,1.47
2018-09-29T13:00:34.748Z,1.40
2018-09-29T13:03:05.035Z,1.37
2018-09-29T13:05:35.279Z,1.10
2018-09-29T13:08:05.644Z,1.23
2018-09-29T13:10:36.077Z,1.40
2018-09-29T13:13:06.611Z,1.30
2018-09-29T13:15:37.080Z,1.40
2018-09-29T13:18:07.182Z,0.93
2018-09-29T13:20:37.504Z,1.53
2018-09-29T13:23:07.671Z,1.07
2018-09-29T13:25:38.127Z,0.80
2018-09-29T13:28:08.296Z,0.90
2018-09-29T13:30:38.531Z,1.10
2018-09-29T13:33:08.815Z,1.13
2018-09-29T13:35:38.909Z,1.00
2018-09-29T13:38:09.058Z,1.30
2018-09-29T13:40:39.136Z,0.93
2018-09-29T13:43:09.182Z,1.23
2018-09-29T13:45:39.233Z,2.17
2018-09-29T13:48:09.623Z,1.27
2018-09-29T13:50:39.713Z,1.50
2018-09-29T13:53:09.749Z,1.87
2018-09-29T13:55:39.830Z,0.90
2018-09-29T13:58:09.856Z,1.20
2018-09-29T14:00:39.979Z,1.53
2018-09-29T14:03:10.168Z,1.13
2018-09-29T14:05:40.325Z,1.50
2018-09-29T14:08:10.402Z,1.00
2018-09-29T14:10:40.565Z,1.57
2018-09-29T14:13:10.761Z,0.97
2018-09-29T14:15:40.910Z,1.00
2018-09-29T14:18:11.074Z,1.43
2018-09-29T14:20:41.232Z,1.27
2018-09-29T14:23:11.323Z,1.63
2018-09-29T14:25:41.429Z,1.53
2018-09-29T14:28:11.474Z,1.50
2018-09-29T14:30:41.735Z,1.60
2018-09-29T14:33:11.878Z,1.77
2018-09-29T14:35:42.026Z,1.30
2018-09-29T14:38:12.254Z,1.40
2018-09-29T14:40:42.386Z,1.30
2018-09-29T14:43:12.511Z,1.80
2018-09-29T14:45:42.586Z,1.57
2018-09-29T14:48:12.727Z,1.37
2018-09-29T14:50:42.887Z,1.30
2018-09-29T14:53:13.000Z,1.90
2018-09-29T14:55:43.155Z,1.20
2018-09-29T14:58:13.334Z,1.60
2018-09-29T15:00:43.444Z,0.90
2018-09-29T15:03:13.503Z,2.40
2018-09-29T15:05:43.606Z,0.90
2018-09-29T15:08:13.657Z,1.37
2018-09-29T15:10:43.795Z,1.47
2018-09-29T15:13:13.870Z,1.20
2018-09-29T15:15:44.001Z,1.20
2018-09-29T15:18:14.054Z,1.70
2018-09-29T15:20:44.306Z,1.90
2018-09-29T15:23:14.508Z,2.00
2018-09-29T15:25:44.595Z,1.70
2018-09-29T15:28:14.730Z,1.40
2018-09-29T15:30:44.851Z,1.20
2018-09-29T15:33:14.930Z,0.87
2018-09-29T15:35:45.228Z,1.17
2018-09-29T15:38:15.304Z,0.73
2018-09-29T15:40:45.491Z,1.10
2018-09-29T15:43:15.719Z,1.40
2018-09-29T15:45:45.841Z,1.67
2018-09-29T15:48:16.144Z,2.00
2018-09-29T15:50:46.232Z,1.77
2018-09-29T15:53:16.384Z,1.70
2018-09-29T15:55:46.494Z,1.00
2018-09-29T15:58:16.562Z,1.10
2018-09-29T16:00:46.662Z,2.03
2018-09-29T16:03:16.717Z,1.63
2018-09-29T16:05:53.419Z,1.00
2018-09-29T16:08:23.642Z,1.10
2018-09-29T16:10:53.803Z,1.13
2018-09-29T16:13:23.892Z,0.80
2018-09-29T16:15:54.008Z,1.47
2018-09-29T16:18:24.159Z,1.03
2018-09-29T16:20:54.290Z,1.40
2018-09-29T16:23:24.341Z,1.63
2018-09-29T16:25:54.438Z,2.00
2018-09-29T16:28:24.535Z,1.53
2018-09-29T16:30:54.664Z,1.60
2018-09-29T16:33:25.881Z,1.30
2018-09-29T16:35:56.039Z,1.20
2018-09-29T16:38:26.131Z,1.27
2018-09-29T16:40:56.214Z,2.33
2018-09-29T16:43:26.430Z,2.30
2018-09-29T16:45:56.515Z,2.70
2018-09-29T16:48:26.662Z,1.57
2018-09-29T16:50:56.752Z,2.13
2018-09-29T16:53:26.975Z,2.53
2018-09-29T16:55:57.045Z,2.20
2018-09-29T16:58:29.986Z,2.93
2018-09-29T17:01:00.081Z,2.20
2018-09-29T17:03:30.227Z,2.10
2018-09-29T17:06:00.377Z,2.40
2018-09-29T17:08:30.429Z,3.00
2018-09-29T17:11:00.642Z,3.57
2018-09-29T17:13:30.678Z,4.00
2018-09-29T17:16:00.890Z,4.60
2018-09-29T17:18:30.955Z,3.97
2018-09-29T17:21:01.096Z,4.33
2018-09-29T17:23:31.283Z,4.67
2018-09-29T17:26:01.468Z,4.10
2018-09-29T17:28:31.593Z,3.43
2018-09-29T17:31:01.923Z,4.60
2018-09-29T17:33:32.051Z,4.10
2018-09-29T17:36:02.487Z,3.77
2018-09-29T17:38:32.621Z,4.03
2018-09-29T17:41:03.317Z,3.53
2018-09-29T17:43:33.549Z,2.87
2018-09-29T17:46:03.885Z,2.40
2018-09-29T17:48:34.466Z,2.73
2018-09-29T17:51:04.664Z,2.70
2018-09-29T17:53:35.164Z,3.90
2018-09-29T17:56:05.481Z,2.70
2018-09-29T17:58:35.859Z,2.60
2018-09-29T18:01:06.628Z,2.93
2018-09-29T18:03:36.889Z,2.70
2018-09-29T18:06:07.490Z,2.77
2018-09-29T18:08:38.089Z,2.47
2018-09-29T18:11:08.782Z,2.50
2018-09-29T18:13:38.960Z,2.30
2018-09-29T18:16:09.447Z,2.77
2018-09-29T18:18:39.665Z,1.93
2018-09-29T18:21:09.925Z,2.30
2018-09-29T18:23:40.106Z,3.40
2018-09-29T18:26:10.506Z,2.77
2018-09-29T18:28:41.006Z,2.80
2018-09-29T18:31:11.260Z,3.17
2018-09-29T18:33:41.332Z,2.57
2018-09-29T18:36:11.426Z,2.63
2018-09-29T18:38:41.568Z,2.60
2018-09-29T18:41:11.930Z,2.80
2018-09-29T18:43:42.262Z,2.87
2018-09-29T18:46:12.628Z,3.50
2018-09-29T18:48:42.908Z,3.03
2018-09-29T18:51:13.156Z,3.30
2018-09-29T18:53:43.554Z,2.50
2018-09-29T18:56:13.848Z,3.30
2018-09-29T18:58:44.182Z,3.47
2018-09-29T19:01:14.490Z,3.43
2018-09-29T19:03:45.070Z,2.97
2018-09-29T19:06:15.961Z,3.73
2018-09-29T19:08:46.201Z,2.70
2018-09-29T19:11:16.587Z,4.00
2018-09-29T19:13:46.849Z,3.30
2018-09-29T19:16:17.273Z,3.47
2018-09-29T19:18:47.358Z,3.47
2018-09-29T19:21:17.535Z,3.23
2018-09-29T19:23:47.624Z,3.23
2018-09-29T19:26:17.701Z,3.30
2018-09-29T19:28:47.834Z,3.83
2018-09-29T19:31:17.926Z,3.43
2018-09-29T19:33:48.126Z,3.60
2018-09-29T19:36:18.174Z,3.10
2018-09-29T19:38:48.253Z,3.57
2018-09-29T19:41:18.371Z,2.90
2018-09-29T19:43:48.509Z,3.37
2018-09-29T19:46:18.579Z,3.93
2018-09-29T19:48:48.702Z,3.53
2018-09-29T19:51:18.820Z,3.10
2018-09-29T19:53:48.883Z,3.30
2018-09-29T19:56:19.012Z,3.60
2018-09-29T19:58:49.086Z,3.50
2018-09-29T20:01:19.177Z,4.07
2018-09-29T20:03:49.335Z,3.60
2018-09-29T20:06:19.435Z,3.73
2018-09-29T20:08:49.517Z,3.67
2018-09-29T20:11:19.605Z,4.20
2018-09-29T20:13:49.700Z,3.50
2018-09-29T20:16:19.828Z,3.27
2018-09-29T20:18:49.865Z,4.20
2018-09-29T20:21:19.912Z,3.20
2018-09-29T20:23:49.959Z,3.40
2018-09-29T20:26:20.002Z,3.23
2018-09-29T20:28:50.038Z,3.47
2018-09-29T20:31:20.278Z,3.57
2018-09-29T20:33:50.457Z,3.47
2018-09-29T20:36:20.668Z,3.60
2018-09-29T20:38:50.724Z,3.00
2018-09-29T20:41:20.833Z,4.17
2018-09-29T20:43:50.961Z,4.37
2018-09-29T20:46:21.111Z,5.27
2018-09-29T20:48:51.206Z,5.43
2018-09-29T20:51:21.322Z,4.33
2018-09-29T20:53:51.496Z,4.83
2018-09-29T20:56:21.583Z,5.23
2018-09-29T20:58:51.596Z,4.10
2018-09-29T21:01:21.722Z,4.53
2018-09-29T21:03:51.720Z,3.67
2018-09-29T21:06:21.839Z,3.30
2018-09-29T21:08:51.894Z,3.97
2018-09-29T21:11:21.925Z,4.20
2018-09-29T21:13:51.997Z,6.07
2018-09-29T21:16:22.052Z,7.30
2018-09-29T21:18:52.049Z,6.10
2018-09-29T21:21:22.161Z,4.73
2018-09-29T21:23:52.208Z,4.40
2018-09-29T21:26:22.281Z,4.80
2018-09-29T21:28:52.298Z,5.70
2018-09-29T21:31:22.347Z,5.00
2018-09-29T21:33:52.404Z,4.80
2018-09-29T21:36:22.587Z,5.33
2018-09-29T21:38:52.619Z,4.13
2018-09-29T21:41:22.700Z,4.00
2018-09-29T21:43:52.821Z,4.20
2018-09-29T21:46:22.891Z,3.83
2018-09-29T21:48:52.959Z,4.03
2018-09-29T21:51:23.026Z,4.50
2018-09-29T21:53:53.043Z,4.47
2018-09-29T21:56:23.172Z,5.50
2018-09-29T21:58:53.242Z,5.00
2018-09-29T22:01:28.552Z,5.87
2018-09-29T22:03:58.606Z,5.50
2018-09-29T22:06:29.188Z,4.50
2018-09-29T22:08:59.869Z,5.80
2018-09-29T22:11:29.925Z,5.40
2018-09-29T22:13:59.941Z,5.70
2018-09-29T22:16:30.073Z,5.00
2018-09-29T22:19:00.108Z,6.47
2018-09-29T22:21:30.199Z,5.70
2018-09-29T22:24:00.253Z,7.13
2018-09-29T22:26:30.350Z,7.70
2018-09-29T22:29:00.339Z,6.60
2018-09-29T22:31:30.414Z,5.73
2018-09-29T22:34:00.427Z,7.00
2018-09-29T22:36:30.487Z,6.17
2018-09-29T22:39:00.571Z,5.00
2018-09-29T22:41:30.767Z,5.67
2018-09-29T22:44:00.795Z,4.40
2018-09-29T22:46:30.867Z,5.20
2018-09-29T22:49:00.999Z,4.90
2018-09-29T22:51:31.094Z,5.37
2018-09-29T22:54:01.151Z,4.40
2018-09-29T22:56:31.218Z,4.77
2018-09-29T22:59:01.219Z,3.87
2018-09-29T23:01:31.352Z,4.73
2018-09-29T23:04:01.379Z,5.57
2018-09-29T23:06:31.445Z,4.47
2018-09-29T23:09:01.514Z,5.30
2018-09-29T23:11:31.576Z,6.10
2018-09-29T23:14:01.662Z,7.20
2018-09-29T23:16:31.779Z,7.90
2018-09-29T23:19:01.890Z,8.47
2018-09-29T23:21:31.943Z,9.33
2018-09-29T23:24:02.033Z,11.20
2018-09-29T23:26:32.133Z,9.13
2018-09-29T23:29:02.223Z,11.93
2018-09-29T23:31:32.369Z,9.93
2018-09-29T23:34:02.451Z,8.37
2018-09-29T23:36:32.628Z,7.67
2018-09-29T23:39:02.861Z,9.40
2018-09-29T23:41:33.027Z,8.03
2018-09-29T23:44:03.066Z,7.80
2018-09-29T23:46:33.481Z,8.10
2018-09-29T23:49:03.601Z,7.30
2018-09-29T23:51:33.722Z,7.23
2018-09-29T23:54:03.846Z,8.40
2018-09-29T23:56:33.937Z,7.93
2018-09-29T23:59:04.104Z,8.43
